Time;durP1;ratioP1;P1;durP2;ratioP2;P2;SDS_P1;SDS_P2;PMS_P1;PMS_P2;Temp;Humidity;BMP_temperature;BMP_pressure;BME280_temperature;BME280_humidity;BME280_pressure;Samples;Min_cycle;Max_cycle;Signal;HPM_P1;HPM_P2
2021/12/20 00:00:52;;;;;;;6.38;4.80;;;10.20;76.90;;;;;;4999565;28;20093;-47
2021/12/20 00:03:19;;;;;;;6.05;4.78;;;10.20;76.90;;;;;;5004695;28;20034;-49
2021/12/20 00:05:46;;;;;;;7.97;5.18;;;10.20;76.90;;;;;;4988524;28;20406;-44
2021/12/20 00:08:12;;;;;;;7.05;4.63;;;10.20;76.90;;;;;;4996775;28;20042;-47
2021/12/20 00:10:39;;;;;;;8.23;5.25;;;10.20;77.00;;;;;;4999194;28;20406;-43
2021/12/20 00:13:06;;;;;;;8.65;4.90;;;10.10;77.00;;;;;;5003172;28;20096;-46
2021/12/20 00:15:33;;;;;;;7.75;5.40;;;10.20;77.10;;;;;;4998074;28;20560;-44
2021/12/20 00:18:00;;;;;;;8.23;5.55;;;10.20;77.20;;;;;;4992498;28;20445;-46
2021/12/20 00:20:27;;;;;;;10.35;6.10;;;10.20;77.30;;;;;;5029510;22;20116;-44
2021/12/20 00:22:56;;;;;;;6.57;5.32;;;10.20;77.20;;;;;;5042317;28;20450;-46
2021/12/20 00:25:23;;;;;;;8.32;5.90;;;10.20;77.20;;;;;;5021928;28;20045;-45
2021/12/20 00:27:50;;;;;;;7.97;5.28;;;10.20;77.10;;;;;;5031090;28;20463;-47
2021/12/20 00:30:17;;;;;;;8.40;5.70;;;10.20;77.00;;;;;;5039643;28;20098;-44
2021/12/20 00:32:44;;;;;;;7.57;5.63;;;10.20;76.90;;;;;;5043852;28;20557;-44
2021/12/20 00:35:13;;;;;;;12.10;5.57;;;10.30;77.00;;;;;;5052620;28;20123;-47
2021/12/20 00:40:25;;;;;;;11.23;6.97;;;10.20;77.00;;;;;;5039265;28;20033;-47
2021/12/20 00:42:58;;;;;;;7.65;4.97;;;10.20;77.00;;;;;;5044325;28;20029;-49
2021/12/20 00:45:29;;;;;;;7.72;5.05;;;10.30;77.60;;;;;;5051988;28;20041;-48
2021/12/20 00:47:56;;;;;;;7.35;5.03;;;10.20;77.00;;;;;;5037304;28;20041;-49
2021/12/20 00:50:24;;;;;;;6.53;4.78;;;10.20;77.00;;;;;;5026773;28;20091;-47
2021/12/20 00:52:51;;;;;;;8.68;4.95;;;10.20;77.00;;;;;;5049117;28;20045;-44
2021/12/20 00:55:20;;;;;;;9.05;4.57;;;10.20;76.90;;;;;;5036729;28;20037;-46
2021/12/20 00:57:48;;;;;;;7.60;5.18;;;10.30;76.90;;;;;;5041889;28;20061;-45
2021/12/20 01:00:19;;;;;;;6.45;4.60;;;10.20;76.80;;;;;;5039898;28;20038;-48
2021/12/20 01:02:47;;;;;;;6.72;4.75;;;10.30;76.80;;;;;;5014741;28;20386;-46
2021/12/20 01:05:17;;;;;;;8.57;5.55;;;10.30;76.80;;;;;;5025005;28;20099;-46
2021/12/20 01:07:47;;;;;;;8.77;4.82;;;10.30;76.70;;;;;;5034504;28;20139;-45
2021/12/20 01:10:14;;;;;;;12.18;5.07;;;10.30;76.60;;;;;;5045740;28;20038;-47
2021/12/20 01:12:47;;;;;;;5.50;4.28;;;10.20;76.50;;;;;;5031802;28;20111;-48
2021/12/20 01:15:36;;;;;;;7.10;5.10;;;10.20;76.40;;;;;;5031074;28;20381;-47
2021/12/20 01:18:05;;;;;;;5.35;3.75;;;10.20;76.20;;;;;;5042984;28;20042;-49
2021/12/20 01:20:33;;;;;;;6.00;4.32;;;10.20;76.20;;;;;;5051503;28;20474;-49
2021/12/20 01:23:00;;;;;;;10.10;4.18;;;10.20;77.00;;;;;;5048298;28;20829;-49
2021/12/20 01:25:27;;;;;;;6.60;4.65;;;10.20;76.30;;;;;;5028167;28;20104;-45
2021/12/20 01:27:56;;;;;;;9.13;3.70;;;10.20;76.20;;;;;;5041245;28;20045;-48
2021/12/20 01:30:25;;;;;;;6.80;4.03;;;10.20;76.30;;;;;;5026553;28;20110;-46
2021/12/20 01:32:56;;;;;;;9.02;4.18;;;10.20;76.30;;;;;;5020353;28;20037;-48
2021/12/20 01:35:25;;;;;;;8.20;4.00;;;10.20;76.20;;;;;;5044942;28;20033;-46
2021/12/20 01:37:53;;;;;;;8.43;4.35;;;10.20;76.20;;;;;;5047649;28;20159;-48
2021/12/20 01:40:21;;;;;;;8.85;3.33;;;10.20;76.20;;;;;;5047598;28;20075;-47
2021/12/20 01:42:54;;;;;;;7.13;3.90;;;10.20;76.20;;;;;;5033383;28;20038;-48
2021/12/20 01:45:23;;;;;;;6.25;3.88;;;10.20;76.30;;;;;;5036749;28;20412;-46
2021/12/20 01:48:02;;;;;;;6.38;3.10;;;10.20;76.40;;;;;;5042168;28;20037;-45
2021/12/20 01:53:23;;;;;;;5.00;3.42;;;10.20;76.20;;;;;;5035015;28;20037;-45
2021/12/20 01:55:52;;;;;;;7.43;3.58;;;10.20;76.10;;;;;;5041146;28;20029;-49
2021/12/20 01:58:19;;;;;;;6.47;3.88;;;10.20;76.20;;;;;;5032535;28;20495;-46
2021/12/20 02:03:33;;;;;;;5.57;3.20;;;10.20;76.10;;;;;;5032785;28;20039;-48
2021/12/20 02:06:04;;;;;;;6.35;3.67;;;10.20;76.10;;;;;;5036482;28;20100;-46
2021/12/20 02:08:31;;;;;;;5.97;3.83;;;10.20;76.10;;;;;;5029558;28;20053;-48
2021/12/20 02:11:05;;;;;;;6.93;3.92;;;10.10;76.10;;;;;;5012080;28;20080;-48
2021/12/20 02:13:34;;;;;;;7.25;3.88;;;10.20;76.10;;;;;;5028274;28;20041;-44
2021/12/20 02:16:01;;;;;;;6.03;2.85;;;10.10;76.10;;;;;;5047064;28;20037;-47
2021/12/20 02:18:31;;;;;;;7.43;4.10;;;10.10;76.10;;;;;;5043526;28;20045;-45
2021/12/20 02:20:59;;;;;;;5.07;3.40;;;10.10;76.10;;;;;;5041123;28;20551;-42
2021/12/20 02:23:26;;;;;;;5.28;3.40;;;10.10;76.10;;;;;;5036349;28;20037;-44
2021/12/20 02:25:53;;;;;;;9.02;4.05;;;10.10;76.00;;;;;;5039513;28;20041;-43
2021/12/20 02:28:25;;;;;;;7.57;3.78;;;10.10;76.20;;;;;;5030641;28;20753;-44
2021/12/20 02:38:48;;;;;;;4.68;2.63;;;10.10;76.20;;;;;;5034049;28;20037;-47
2021/12/20 02:41:27;;;;;;;6.25;3.20;;;10.10;76.20;;;;;;5027647;28;20041;-44
2021/12/20 02:43:56;;;;;;;9.00;4.28;;;10.10;76.00;;;;;;5039412;28;20493;-45
2021/12/20 02:49:00;;;;;;;7.13;3.13;;;10.10;76.00;;;;;;5037077;28;20087;-43
2021/12/20 02:51:28;;;;;;;5.35;3.25;;;10.10;76.00;;;;;;5035547;28;20488;-44
2021/12/20 02:53:58;;;;;;;9.25;3.50;;;10.10;75.90;;;;;;5041338;28;20033;-43
2021/12/20 02:56:25;;;;;;;6.40;3.25;;;10.10;75.80;;;;;;5048992;28;20075;-44
2021/12/20 02:58:53;;;;;;;5.95;2.72;;;10.10;75.70;;;;;;5031120;28;20496;-44
2021/12/20 03:01:21;;;;;;;4.18;2.83;;;10.10;75.60;;;;;;5045292;28;20289;-44
2021/12/20 03:03:50;;;;;;;4.50;3.00;;;10.10;75.60;;;;;;5046179;28;20496;-43
2021/12/20 03:06:25;;;;;;;7.35;3.25;;;10.10;75.60;;;;;;5035850;28;20095;-44
2021/12/20 03:08:55;;;;;;;9.05;3.70;;;10.10;75.40;;;;;;5034529;28;20091;-45
2021/12/20 03:11:25;;;;;;;10.73;3.30;;;10.10;75.60;;;;;;5041649;28;20047;-47
2021/12/20 03:13:56;;;;;;;7.90;2.90;;;10.10;75.60;;;;;;5047441;28;20068;-45
2021/12/20 03:16:23;;;;;;;7.90;3.42;;;10.10;75.60;;;;;;5031427;28;20121;-47
2021/12/20 03:18:50;;;;;;;9.50;4.00;;;10.10;75.60;;;;;;5031004;28;20103;-48
2021/12/20 03:21:17;;;;;;;7.72;3.15;;;10.10;75.50;;;;;;5011530;28;20045;-46
2021/12/20 03:23:43;;;;;;;3.63;2.83;;;10.10;75.60;;;;;;5038382;28;20561;-47
2021/12/20 03:26:10;;;;;;;5.15;3.20;;;10.10;75.70;;;;;;5016288;28;20054;-46
2021/12/20 03:28:39;;;;;;;6.45;3.33;;;10.10;75.90;;;;;;5038291;28;20092;-46
2021/12/20 03:31:05;;;;;;;6.05;3.15;;;10.10;75.90;;;;;;5047503;28;20040;-48
2021/12/20 03:33:32;;;;;;;5.50;3.47;;;10.10;75.90;;;;;;5030688;28;20037;-48
2021/12/20 03:35:59;;;;;;;9.30;3.67;;;10.10;75.90;;;;;;5031762;28;20556;-47
2021/12/20 03:38:26;;;;;;;6.80;2.90;;;10.10;75.80;;;;;;5040078;28;20099;-46
2021/12/20 03:40:52;;;;;;;9.02;3.20;;;10.10;75.70;;;;;;5041021;28;20563;-47
2021/12/20 03:43:19;;;;;;;6.93;3.45;;;10.10;75.70;;;;;;5049368;28;20106;-44
2021/12/20 03:45:50;;;;;;;3.88;2.72;;;10.00;75.60;;;;;;5034716;28;20091;-46
2021/12/20 03:48:17;;;;;;;7.13;3.30;;;10.10;75.80;;;;;;5029744;28;20087;-44
2021/12/20 03:50:46;;;;;;;7.82;3.55;;;10.10;75.80;;;;;;5045055;28;20642;-44
2021/12/20 03:53:13;;;;;;;5.65;3.22;;;10.10;75.80;;;;;;5049429;28;20049;-48
2021/12/20 03:55:40;;;;;;;4.13;2.75;;;10.10;75.70;;;;;;5021976;28;20543;-44
2021/12/20 03:58:07;;;;;;;5.15;3.20;;;10.10;75.80;;;;;;5039149;28;20033;-46
2021/12/20 04:00:35;;;;;;;4.50;2.78;;;10.10;75.70;;;;;;5043034;28;20041;-48
2021/12/20 04:03:08;;;;;;;7.50;3.05;;;10.10;75.80;;;;;;5024810;28;20581;-46
2021/12/20 04:05:35;;;;;;;7.30;2.92;;;10.10;75.80;;;;;;5031793;28;20042;-44
2021/12/20 04:08:02;;;;;;;6.35;2.95;;;10.10;75.80;;;;;;5037395;28;20478;-52
2021/12/20 04:10:29;;;;;;;5.65;2.90;;;10.10;75.70;;;;;;5029583;28;20052;-45
2021/12/20 04:12:56;;;;;;;6.05;3.30;;;10.10;75.70;;;;;;5032142;28;20044;-46
2021/12/20 04:15:23;;;;;;;7.47;3.08;;;10.10;75.70;;;;;;5033052;28;20048;-43
2021/12/20 04:17:50;;;;;;;7.82;3.25;;;10.10;75.70;;;;;;5040619;28;20451;-45
2021/12/20 04:20:17;;;;;;;6.55;2.92;;;10.10;75.70;;;;;;5049378;28;20199;-45
2021/12/20 04:22:44;;;;;;;8.55;3.33;;;10.10;75.70;;;;;;5036951;28;20099;-44
2021/12/20 04:25:11;;;;;;;9.98;3.03;;;10.10;75.60;;;;;;5038192;28;20042;-45
2021/12/20 04:27:38;;;;;;;6.47;3.33;;;10.10;75.50;;;;;;5028870;28;20096;-47
2021/12/20 04:30:11;;;;;;;6.18;3.28;;;10.10;75.40;;;;;;5028285;28;20155;-47
2021/12/20 04:32:40;;;;;;;6.78;3.22;;;10.10;75.40;;;;;;5026721;28;20103;-47
2021/12/20 04:35:08;;;;;;;7.70;3.78;;;10.10;75.40;;;;;;5042172;28;20072;-48
2021/12/20 04:37:35;;;;;;;5.38;2.95;;;10.10;75.40;;;;;;5043249;28;20044;-44
2021/12/20 04:40:09;;;;;;;6.82;3.35;;;10.00;75.30;;;;;;5048641;28;20067;-46
2021/12/20 04:42:36;;;;;;;6.15;2.65;;;10.10;75.40;;;;;;5036517;28;20041;-47
2021/12/20 04:45:03;;;;;;;9.38;3.55;;;10.10;75.40;;;;;;5043301;28;20049;-45
2021/12/20 04:47:30;;;;;;;5.75;2.65;;;10.10;75.40;;;;;;5045941;28;20048;-50
2021/12/20 04:49:57;;;;;;;9.40;3.47;;;10.00;75.50;;;;;;5052324;28;20037;-44
2021/12/20 04:52:24;;;;;;;8.38;3.50;;;10.00;75.20;;;;;;5037623;28;20048;-49
2021/12/20 04:54:51;;;;;;;7.68;3.28;;;10.00;75.10;;;;;;5039820;28;20104;-46
2021/12/20 04:57:18;;;;;;;7.15;3.00;;;10.00;75.20;;;;;;5051602;28;20095;-47
2021/12/20 04:59:44;;;;;;;6.10;3.00;;;10.00;75.10;;;;;;5040964;28;20068;-45
2021/12/20 05:02:11;;;;;;;7.45;2.97;;;10.00;75.20;;;;;;5036483;28;20045;-45
2021/12/20 05:04:38;;;;;;;8.05;3.05;;;10.00;75.20;;;;;;5036107;28;20531;-47
2021/12/20 05:07:05;;;;;;;8.43;2.85;;;10.00;75.00;;;;;;5027987;28;20473;-46
2021/12/20 05:09:37;;;;;;;7.13;3.40;;;10.00;75.10;;;;;;5027690;28;20110;-44
2021/12/20 05:12:13;;;;;;;5.10;3.03;;;10.00;75.00;;;;;;5035565;28;20493;-46
2021/12/20 05:14:41;;;;;;;6.22;3.05;;;10.00;75.00;;;;;;5037061;28;20641;-48
2021/12/20 05:17:13;;;;;;;6.85;2.70;;;10.00;75.00;;;;;;5010622;28;20091;-49
2021/12/20 05:19:44;;;;;;;5.82;2.55;;;10.00;74.90;;;;;;5037466;28;20553;-47
2021/12/20 05:22:12;;;;;;;9.57;3.25;;;9.90;74.70;;;;;;5042126;28;20060;-45
2021/12/20 05:24:39;;;;;;;9.82;3.22;;;10.00;74.70;;;;;;5036194;28;20076;-44
2021/12/20 05:27:06;;;;;;;6.90;3.22;;;10.00;74.60;;;;;;5029878;28;20050;-45
2021/12/20 05:29:33;;;;;;;10.70;3.55;;;10.00;74.20;;;;;;5032892;28;20087;-44
2021/12/20 05:32:03;;;;;;;8.60;2.95;;;9.90;74.00;;;;;;5042648;28;20608;-47
2021/12/20 05:34:30;;;;;;;9.85;3.17;;;9.90;74.00;;;;;;5050423;28;20056;-47
2021/12/20 05:36:57;;;;;;;6.93;3.22;;;9.90;74.10;;;;;;5050996;28;20040;-44
2021/12/20 05:39:24;;;;;;;5.72;2.50;;;9.90;74.00;;;;;;5036593;28;20037;-48
2021/12/20 05:41:50;;;;;;;8.20;2.78;;;9.90;73.90;;;;;;5041378;28;20451;-46
2021/12/20 05:44:17;;;;;;;7.60;3.67;;;9.90;73.90;;;;;;5011678;28;20042;-46
2021/12/20 05:46:44;;;;;;;8.05;2.65;;;9.90;73.90;;;;;;5013654;28;20034;-49
2021/12/20 05:49:11;;;;;;;7.35;2.75;;;9.90;73.80;;;;;;5037949;28;20056;-46
2021/12/20 05:51:39;;;;;;;5.82;2.25;;;9.90;73.90;;;;;;5025547;28;20037;-46
2021/12/20 05:54:08;;;;;;;5.18;1.98;;;9.90;74.10;;;;;;5031962;28;20041;-47
2021/12/20 05:56:35;;;;;;;7.30;1.95;;;9.90;74.20;;;;;;5035076;28;20040;-49
2021/12/20 05:59:02;;;;;;;7.85;3.05;;;9.90;74.30;;;;;;5033565;28;20029;-45
2021/12/20 06:01:30;;;;;;;9.80;2.67;;;9.90;74.30;;;;;;5030818;28;20132;-46
2021/12/20 06:03:58;;;;;;;8.68;2.60;;;9.90;74.30;;;;;;5020621;28;20041;-47
2021/12/20 06:06:28;;;;;;;10.52;2.85;;;9.90;74.30;;;;;;5033388;28;20128;-46
2021/12/20 06:08:55;;;;;;;7.32;2.72;;;9.90;74.20;;;;;;5034031;28;20041;-46
2021/12/20 06:11:24;;;;;;;6.25;2.15;;;9.80;73.90;;;;;;5037239;28;20147;-45
2021/12/20 06:13:52;;;;;;;7.78;2.30;;;9.90;73.80;;;;;;5031423;28;20103;-49
2021/12/20 06:16:18;;;;;;;4.88;2.22;;;9.80;73.90;;;;;;5025657;28;20041;-44
2021/12/20 06:18:45;;;;;;;7.85;3.05;;;9.80;74.00;;;;;;5039032;28;20057;-46
2021/12/20 06:21:12;;;;;;;9.48;2.75;;;9.80;74.00;;;;;;5041249;28;20053;-47
2021/12/20 06:23:39;;;;;;;8.70;2.67;;;9.80;74.20;;;;;;5043085;28;20095;-48
2021/12/20 06:26:05;;;;;;;9.05;3.22;;;9.80;74.30;;;;;;5027540;28;20072;-45
2021/12/20 06:28:32;;;;;;;8.20;2.78;;;9.80;74.20;;;;;;5038200;28;20566;-46
2021/12/20 06:30:59;;;;;;;5.75;2.53;;;9.80;74.10;;;;;;5046898;28;20090;-47
2021/12/20 06:33:28;;;;;;;7.50;2.70;;;9.80;74.20;;;;;;5041999;28;20111;-47
2021/12/20 06:35:58;;;;;;;5.38;2.25;;;9.80;74.80;;;;;;5043589;28;20115;-47
2021/12/20 06:38:25;;;;;;;6.85;2.22;;;9.80;74.20;;;;;;5042961;28;20045;-48
2021/12/20 06:40:52;;;;;;;8.00;2.53;;;9.80;74.30;;;;;;5050722;28;20048;-49
2021/12/20 06:43:20;;;;;;;7.90;2.92;;;9.80;74.10;;;;;;5032562;28;20033;-45
2021/12/20 06:45:47;;;;;;;6.07;2.13;;;9.80;73.90;;;;;;5041625;28;20041;-48
2021/12/20 06:48:14;;;;;;;6.53;1.83;;;9.80;73.80;;;;;;5031662;28;20053;-46
2021/12/20 06:50:41;;;;;;;5.40;2.03;;;9.80;74.00;;;;;;5027877;28;20042;-44
2021/12/20 06:53:08;;;;;;;7.20;2.17;;;9.80;74.20;;;;;;5026493;28;20049;-45
2021/12/20 06:55:35;;;;;;;10.48;2.35;;;9.80;74.20;;;;;;5040832;28;20073;-45
2021/12/20 06:58:04;;;;;;;7.60;2.58;;;9.70;74.10;;;;;;5046997;28;20048;-45
2021/12/20 07:00:31;;;;;;;5.10;2.40;;;9.70;74.20;;;;;;5049295;28;20045;-45
2021/12/20 07:02:59;;;;;;;5.88;2.25;;;9.80;74.20;;;;;;5032075;28;20034;-45
2021/12/20 07:05:26;;;;;;;6.38;2.40;;;9.70;74.20;;;;;;5042091;28;20040;-47
2021/12/20 07:07:53;;;;;;;8.88;2.08;;;9.70;74.30;;;;;;5024188;28;20045;-46
2021/12/20 07:10:21;;;;;;;12.32;2.42;;;9.70;74.30;;;;;;5031454;28;20033;-49
2021/12/20 07:12:48;;;;;;;6.53;2.65;;;9.70;74.30;;;;;;5044595;28;20511;-46
2021/12/20 07:15:15;;;;;;;5.28;2.58;;;9.70;74.40;;;;;;5048000;28;20076;-46
2021/12/20 07:17:42;;;;;;;8.40;2.42;;;9.70;74.40;;;;;;5028646;28;20083;-47
2021/12/20 07:20:10;;;;;;;5.05;2.05;;;9.70;74.40;;;;;;5038080;28;20045;-51
2021/12/20 07:22:37;;;;;;;5.70;2.88;;;9.70;74.50;;;;;;5031781;28;20531;-51
2021/12/20 07:25:04;;;;;;;4.35;2.25;;;9.70;74.50;;;;;;5038209;28;20192;-46
2021/12/20 07:27:31;;;;;;;5.05;2.42;;;9.70;74.50;;;;;;5028660;28;20049;-50
2021/12/20 07:29:59;;;;;;;4.55;2.40;;;9.70;74.60;;;;;;5033598;28;20068;-46
2021/12/20 07:32:25;;;;;;;6.97;2.15;;;9.70;74.50;;;;;;5037277;28;20519;-47
2021/12/20 07:34:52;;;;;;;4.10;2.03;;;9.70;74.70;;;;;;4992492;28;20045;-47
2021/12/20 07:37:19;;;;;;;4.25;1.67;;;9.70;74.70;;;;;;5008139;28;20040;-47
2021/12/20 07:39:46;;;;;;;3.55;1.75;;;9.70;74.80;;;;;;5014769;28;20563;-51
2021/12/20 07:42:13;;;;;;;6.43;2.50;;;9.70;74.70;;;;;;5031530;28;20042;-51
2021/12/20 07:44:40;;;;;;;3.75;1.80;;;9.60;74.70;;;;;;5025345;28;20052;-47
2021/12/20 07:47:07;;;;;;;3.22;1.80;;;9.70;74.80;;;;;;5022706;28;20049;-48
2021/12/20 07:49:34;;;;;;;4.97;1.92;;;9.60;74.70;;;;;;5017311;28;20127;-50
2021/12/20 07:52:02;;;;;;;5.25;2.22;;;9.60;74.70;;;;;;5025056;28;20047;-51
2021/12/20 07:54:29;;;;;;;7.05;2.15;;;9.60;74.60;;;;;;5016357;28;20046;-46
2021/12/20 07:56:57;;;;;;;7.05;2.33;;;9.60;74.60;;;;;;5023236;28;20468;-49
2021/12/20 07:59:24;;;;;;;5.03;2.42;;;9.60;74.50;;;;;;5017826;28;20630;-49
2021/12/20 08:01:51;;;;;;;5.78;2.20;;;9.60;74.50;;;;;;5025940;28;20038;-48
2021/12/20 08:04:18;;;;;;;11.65;2.72;;;9.70;74.60;;;;;;5020558;28;20491;-49
2021/12/20 08:06:45;;;;;;;8.95;2.55;;;9.60;74.40;;;;;;5018279;28;20037;-47
2021/12/20 08:09:14;;;;;;;5.10;2.53;;;9.60;74.40;;;;;;5024324;28;20083;-48
2021/12/20 08:11:42;;;;;;;7.03;2.10;;;9.70;75.20;;;;;;5007755;28;20038;-48
2021/12/20 08:14:09;;;;;;;9.18;2.20;;;9.70;74.60;;;;;;5025032;28;20554;-50
2021/12/20 08:16:36;;;;;;;6.30;2.13;;;9.70;74.70;;;;;;5016023;28;20038;-46
2021/12/20 08:19:03;;;;;;;9.20;2.78;;;9.70;74.70;;;;;;5025785;28;20045;-47
2021/12/20 08:21:30;;;;;;;7.35;2.75;;;9.70;74.30;;;;;;5025737;28;20025;-47
2021/12/20 08:23:57;;;;;;;6.78;2.03;;;9.70;74.10;;;;;;5024680;28;20110;-48
2021/12/20 08:26:26;;;;;;;8.65;2.53;;;9.70;74.20;;;;;;5017397;28;20038;-46
2021/12/20 08:28:57;;;;;;;10.30;3.20;;;9.70;74.20;;;;;;5028409;28;20045;-47
2021/12/20 08:31:24;;;;;;;8.50;2.92;;;9.80;74.20;;;;;;5020733;28;20049;-47
2021/12/20 08:33:50;;;;;;;10.85;2.75;;;9.70;74.10;;;;;;5025234;28;20042;-47
2021/12/20 08:36:18;;;;;;;7.82;2.70;;;9.80;74.20;;;;;;5020839;28;20033;-48
2021/12/20 08:38:45;;;;;;;11.00;3.78;;;9.80;74.10;;;;;;5038863;28;20075;-47
2021/12/20 08:41:12;;;;;;;10.32;3.25;;;9.80;74.00;;;;;;5015823;28;20042;-46
2021/12/20 08:43:40;;;;;;;9.32;3.78;;;9.80;73.80;;;;;;5031985;28;20103;-48
2021/12/20 08:46:09;;;;;;;10.68;4.00;;;9.90;73.70;;;;;;5018700;28;20053;-51
2021/12/20 08:48:36;;;;;;;7.32;3.10;;;9.90;73.60;;;;;;5021553;28;20049;-47
2021/12/20 08:51:03;;;;;;;12.57;4.03;;;9.90;73.60;;;;;;5020654;28;20049;-47
2021/12/20 08:53:29;;;;;;;8.13;2.63;;;9.90;73.50;;;;;;5013751;28;20080;-49
2021/12/20 08:55:57;;;;;;;12.88;3.08;;;9.90;73.40;;;;;;5019411;28;20045;-47
2021/12/20 08:58:24;;;;;;;9.10;3.22;;;10.00;73.40;;;;;;5037920;28;20037;-48
2021/12/20 09:00:52;;;;;;;11.68;3.10;;;9.90;73.30;;;;;;5021895;28;20555;-51
2021/12/20 09:03:20;;;;;;;9.98;2.90;;;10.00;73.40;;;;;;5030216;28;20038;-48
2021/12/20 09:05:47;;;;;;;6.55;2.60;;;10.00;73.30;;;;;;5016069;28;20037;-47
2021/12/20 09:08:17;;;;;;;8.00;3.13;;;10.00;73.20;;;;;;5027629;28;20038;-48
2021/12/20 09:10:47;;;;;;;6.93;3.03;;;10.00;73.00;;;;;;5024209;28;20040;-48
2021/12/20 09:13:14;;;;;;;6.85;2.72;;;10.00;72.80;;;;;;5024848;28;20049;-48
2021/12/20 09:15:42;;;;;;;10.68;3.10;;;9.90;72.70;;;;;;5018888;28;20598;-47
2021/12/20 09:18:09;;;;;;;7.72;2.50;;;9.90;72.50;;;;;;5038647;28;20049;-47
2021/12/20 09:20:37;;;;;;;14.70;3.40;;;9.90;72.40;;;;;;5020924;28;20092;-50
2021/12/20 09:23:07;;;;;;;11.85;3.35;;;9.80;72.30;;;;;;5029446;28;20091;-49
2021/12/20 09:25:40;;;;;;;9.90;3.05;;;9.80;72.20;;;;;;5022778;28;20084;-49
2021/12/20 09:28:10;;;;;;;10.75;3.95;;;9.70;72.10;;;;;;5040674;28;20459;-47
2021/12/20 09:30:41;;;;;;;7.38;2.83;;;9.70;72.30;;;;;;5019795;28;20045;-47
2021/12/20 09:33:08;;;;;;;14.83;3.67;;;9.60;72.30;;;;;;5027970;28;20049;-49
2021/12/20 09:35:35;;;;;;;6.90;3.63;;;9.60;72.30;;;;;;5001811;28;20034;-51
2021/12/20 09:38:08;;;;;;;9.65;4.43;;;9.50;72.30;;;;;;5030119;28;20088;-48
2021/12/20 09:40:40;;;;;;;;;;;9.40;72.30;;;;;;5020128;28;20447;-51
2021/12/20 09:43:12;;;;;;;10.35;3.42;;;9.50;72.40;;;;;;5034045;28;19928;-47
2021/12/20 09:45:43;;;;;;;8.90;3.53;;;9.40;72.30;;;;;;5026465;28;20532;-46
2021/12/20 09:48:10;;;;;;;11.48;4.20;;;9.40;72.60;;;;;;5030513;28;20041;-48
2021/12/20 09:50:40;;;;;;;15.07;4.70;;;9.30;72.70;;;;;;5012651;28;20038;-50
2021/12/20 09:53:07;;;;;;;10.13;3.92;;;9.30;72.70;;;;;;5035381;28;20095;-51
2021/12/20 09:55:35;;;;;;;10.82;3.63;;;9.30;72.80;;;;;;5029088;28;20045;-50
2021/12/20 09:58:04;;;;;;;11.93;4.30;;;9.20;72.70;;;;;;5028903;28;20046;-50
2021/12/20 10:00:32;;;;;;;10.82;4.05;;;9.20;72.60;;;;;;5036011;28;20033;-51
2021/12/20 10:02:59;;;;;;;13.55;4.78;;;9.20;72.80;;;;;;5039189;28;20129;-51
2021/12/20 10:05:27;;;;;;;18.17;4.28;;;9.20;72.80;;;;;;5046390;28;20120;-51
2021/12/20 10:07:56;;;;;;;10.55;4.07;;;9.20;72.80;;;;;;5027247;28;20424;-51
2021/12/20 10:10:37;;;;;;;14.38;4.68;;;9.20;72.90;;;;;;5030642;28;20037;-50
2021/12/20 10:13:04;;;;;;;13.48;4.75;;;9.20;72.80;;;;;;5035188;28;20497;-51
2021/12/20 10:15:36;;;;;;;12.25;4.55;;;9.20;73.00;;;;;;5036490;28;20033;-51
2021/12/20 10:18:05;;;;;;;12.23;4.95;;;9.20;73.10;;;;;;5036586;28;20132;-48
2021/12/20 10:20:34;;;;;;;13.20;4.18;;;9.20;73.10;;;;;;5051081;28;20041;-51
2021/12/20 10:23:15;;;;;;;19.77;5.78;;;9.20;73.10;;;;;;5039907;28;20382;-51
2021/12/20 10:25:44;;;;;;;13.10;4.90;;;9.20;72.90;;;;;;5044258;28;20080;-46
2021/12/20 10:28:13;;;;;;;12.63;4.97;;;9.20;73.10;;;;;;5044170;28;20042;-50
2021/12/20 10:30:48;;;;;;;13.43;4.57;;;9.20;73.20;;;;;;5038744;28;20041;-46
2021/12/20 10:33:20;;;;;;;12.50;6.13;;;9.20;73.00;;;;;;5042344;28;20500;-51
2021/12/20 10:35:52;;;;;;;11.90;5.57;;;9.20;72.90;;;;;;5050893;28;20455;-51
2021/12/20 10:38:28;;;;;;;18.88;6.35;;;9.20;72.80;;;;;;5034128;28;20045;-49
2021/12/20 10:41:16;;;;;;;14.32;5.53;;;9.20;72.90;;;;;;5004137;28;20045;-51
2021/12/20 10:43:51;;;;;;;17.90;6.55;;;9.20;72.80;;;;;;5039406;28;20386;-48
2021/12/20 10:46:26;;;;;;;14.32;5.85;;;9.20;72.70;;;;;;5049894;28;20041;-50
2021/12/20 10:48:59;;;;;;;17.50;6.03;;;9.20;72.40;;;;;;5032860;28;20036;-51
2021/12/20 10:51:38;;;;;;;17.92;6.68;;;9.20;72.40;;;;;;5021415;28;20048;-52
2021/12/20 10:54:10;;;;;;;13.65;5.43;;;9.30;72.00;;;;;;5030256;28;20045;-48
2021/12/20 10:56:40;;;;;;;20.10;6.30;;;9.30;72.30;;;;;;5031256;28;20471;-51
2021/12/20 10:59:13;;;;;;;17.30;5.65;;;9.30;72.90;;;;;;5040714;28;20080;-49
2021/12/20 11:04:16;;;;;;;24.85;5.80;;;9.30;72.30;;;;;;5044275;28;20038;-47
2021/12/20 11:09:26;;;;;;;16.52;5.47;;;9.30;72.00;;;;;;5045076;28;20452;-51
2021/12/20 11:11:55;;;;;;;15.80;5.18;;;9.30;71.80;;;;;;5034269;28;20047;-51
2021/12/20 11:14:30;;;;;;;11.77;5.07;;;9.30;71.30;;;;;;5029081;28;20045;-50
2021/12/20 11:16:59;;;;;;;16.60;5.93;;;9.30;71.00;;;;;;5038270;28;20049;-48
2021/12/20 11:19:32;;;;;;;15.90;5.20;;;9.40;71.30;;;;;;5033270;28;20373;-49
2021/12/20 11:22:11;;;;;;;17.45;5.55;;;9.40;71.20;;;;;;5038459;28;20052;-50
2021/12/20 11:24:41;;;;;;;11.10;4.90;;;9.40;70.50;;;;;;5024560;28;20091;-48
2021/12/20 11:27:15;;;;;;;18.33;6.32;;;9.40;71.10;;;;;;5030614;28;20047;-51
2021/12/20 11:29:44;;;;;;;16.30;5.65;;;9.40;70.90;;;;;;5040957;28;20455;-52
2021/12/20 11:32:12;;;;;;;15.95;5.93;;;9.50;70.80;;;;;;5033362;28;20488;-51
2021/12/20 11:34:41;;;;;;;14.88;5.38;;;9.50;70.80;;;;;;5039615;28;20107;-46
2021/12/20 11:37:11;;;;;;;14.35;4.85;;;9.50;70.70;;;;;;5041534;28;20124;-50
2021/12/20 11:39:37;;;;;;;20.10;7.03;;;9.50;70.60;;;;;;5042767;28;20099;-49
2021/12/20 11:42:07;;;;;;;20.02;5.45;;;9.50;70.40;;;;;;5050125;28;20044;-49
2021/12/20 11:44:37;;;;;;;19.73;6.57;;;9.60;70.50;;;;;;5035355;28;20041;-49
2021/12/20 11:47:23;;;;;;;12.02;4.63;;;9.60;70.20;;;;;;5039269;28;20049;-51
2021/12/20 11:49:57;;;;;;;13.57;5.03;;;9.60;69.60;;;;;;5009274;28;20050;-50
2021/12/20 11:52:28;;;;;;;16.42;5.05;;;9.60;69.50;;;;;;5018391;28;20072;-49
2021/12/20 11:54:55;;;;;;;13.97;4.83;;;9.60;69.70;;;;;;5038561;28;20544;-47
2021/12/20 11:57:27;;;;;;;15.30;4.65;;;9.60;69.70;;;;;;5045886;28;20083;-48
2021/12/20 12:00:09;;;;;;;14.82;5.40;;;9.60;69.00;;;;;;5042829;28;20112;-48
2021/12/20 12:02:42;;;;;;;14.73;5.18;;;9.70;69.50;;;;;;5034895;28;20041;-49
2021/12/20 12:05:17;;;;;;;17.23;5.55;;;9.60;69.40;;;;;;5044501;28;20092;-50
2021/12/20 12:07:46;;;;;;;15.20;5.90;;;9.70;69.10;;;;;;5034583;28;20492;-49
2021/12/20 12:10:16;;;;;;;19.10;6.13;;;9.70;68.90;;;;;;5033540;28;20095;-51
2021/12/20 12:12:47;;;;;;;16.88;6.65;;;9.70;68.80;;;;;;5030634;28;20096;-48
2021/12/20 12:15:27;;;;;;;16.88;5.22;;;9.60;68.80;;;;;;5027130;28;20053;-48
2021/12/20 12:18:00;;;;;;;18.95;5.50;;;9.60;69.00;;;;;;5037375;28;20128;-50
2021/12/20 12:20:38;;;;;;;;;;;9.70;69.20;;;;;;5039920;28;20496;-49
2021/12/20 12:23:42;;;;;;;18.27;6.10;;;9.70;69.10;;;;;;5040799;28;19998;-51
2021/12/20 12:26:27;;;;;;;14.77;4.63;;;9.70;68.60;;;;;;5040761;28;20052;-50
2021/12/20 12:28:56;;;;;;;14.82;5.40;;;9.70;68.90;;;;;;5031861;28;20037;-51
2021/12/20 12:31:24;;;;;;;14.35;4.57;;;9.80;69.20;;;;;;5047320;28;20037;-50
2021/12/20 12:34:08;;;;;;;11.35;3.63;;;9.80;68.90;;;;;;5047188;28;20098;-51
2021/12/20 12:36:42;;;;;;;12.35;4.60;;;9.70;68.20;;;;;;5042784;28;20033;-52
2021/12/20 12:39:24;;;;;;;14.57;4.60;;;9.80;68.90;;;;;;5043366;28;20120;-52
2021/12/20 12:42:00;;;;;;;15.95;5.28;;;9.80;68.40;;;;;;5040859;28;20045;-51
2021/12/20 12:44:32;;;;;;;13.13;4.35;;;9.80;68.70;;;;;;5044293;28;20041;-51
2021/12/20 12:47:04;;;;;;;12.13;4.20;;;9.80;68.40;;;;;;5053025;28;20055;-51
2021/12/20 12:49:42;;;;;;;13.53;3.97;;;9.80;68.30;;;;;;5032312;28;20511;-50
2021/12/20 12:52:18;;;;;;;8.43;3.63;;;9.80;67.60;;;;;;5041964;28;20288;-49
2021/12/20 12:55:08;;;;;;;14.10;3.92;;;9.80;67.80;;;;;;5041233;22;20537;-75
2021/12/20 12:57:41;;;;;;;17.27;4.57;;;9.80;68.30;;;;;;4998097;28;20417;-73
2021/12/20 13:00:20;;;;;;;11.48;3.15;;;9.90;68.50;;;;;;5029279;28;20037;-75
2021/12/20 13:02:50;;;;;;;12.52;3.90;;;9.90;68.10;;;;;;5011028;28;20103;-76
2021/12/20 13:05:23;;;;;;;13.15;4.28;;;10.00;68.40;;;;;;4985405;28;20042;-74
2021/12/20 13:07:58;;;;;;;12.93;3.45;;;10.10;68.20;;;;;;4991422;28;20072;-75
2021/12/20 13:10:39;;;;;;;7.40;3.17;;;10.00;68.10;;;;;;4994044;28;20049;-75
2021/12/20 13:15:52;;;;;;;10.23;3.75;;;10.00;67.30;;;;;;4992134;28;20056;-75
2021/12/20 13:18:28;;;;;;;9.85;3.60;;;10.00;67.50;;;;;;5003818;28;20149;-75
2021/12/20 13:23:35;;;;;;;8.82;3.10;;;10.00;67.70;;;;;;5013938;28;20053;-76
2021/12/20 13:26:11;;;;;;;9.85;3.45;;;9.90;67.70;;;;;;5012360;28;20041;-75
2021/12/20 13:28:40;;;;;;;12.15;3.92;;;9.90;67.60;;;;;;5026076;28;20040;-75
2021/12/20 13:31:16;;;;;;;9.45;3.95;;;9.90;67.70;;;;;;4990691;28;20042;-74